Time;durP1;ratioP1;P1;durP2;ratioP2;P2;SDS_P1;SDS_P2;PMS_P1;PMS_P2;Temp;Humidity;BMP_temperature;BMP_pressure;BME280_temperature;BME280_humidity;BME280_pressure;Samples;Min_cycle;Max_cycle;Signal;HPM_P1;HPM_P2
2022/06/15 00:02:07;;;;;;;4.03;1.70;;;;;;;17.58;46.38;100514.09;5044215;28;20037;-79
2022/06/15 00:04:34;;;;;;;3.45;1.40;;;;;;;17.67;46.45;100529.50;5030289;28;20052;-79
2022/06/15 00:07:01;;;;;;;3.05;1.63;;;;;;;17.59;46.20;100521.19;5041587;28;20459;-77
2022/06/15 00:09:28;;;;;;;3.72;1.50;;;;;;;17.57;46.59;100523.09;5046647;28;20049;-79
2022/06/15 00:11:54;;;;;;;2.72;1.48;;;;;;;17.49;46.82;100517.44;5048079;28;20636;-80
2022/06/15 00:14:24;;;;;;;3.63;1.58;;;;;;;17.32;47.00;100491.91;5041540;28;20432;-79
2022/06/15 00:16:52;;;;;;;2.55;1.60;;;;;;;17.41;47.11;100510.00;5027461;28;20146;-78
2022/06/15 00:19:19;;;;;;;2.88;1.60;;;;;;;17.37;47.18;100523.72;5049452;28;20067;-79
2022/06/15 00:21:46;;;;;;;2.80;1.60;;;;;;;17.17;47.53;100499.25;5049630;28;20049;-78
2022/06/15 00:24:13;;;;;;;2.72;1.60;;;;;;;17.30;47.69;100528.66;5045323;28;20065;-79
2022/06/15 00:26:41;;;;;;;1.90;1.52;;;;;;;17.25;48.31;100521.94;5045863;28;20037;-79
2022/06/15 00:29:09;;;;;;;2.78;1.48;;;;;;;17.24;48.01;100531.78;5049334;28;20152;-79
2022/06/15 00:31:36;;;;;;;4.65;1.50;;;;;;;17.11;48.30;100507.72;5046644;28;20080;-77
2022/06/15 00:34:03;;;;;;;3.85;1.60;;;;;;;17.07;48.08;100505.38;5043375;28;20037;-76
2022/06/15 00:36:29;;;;;;;2.97;1.48;;;;;;;17.05;48.22;100512.66;5046142;28;20446;-80
2022/06/15 00:38:58;;;;;;;2.47;1.63;;;;;;;17.13;48.12;100524.53;5046261;28;20087;-78
2022/06/15 00:41:32;;;;;;;4.57;1.83;;;;;;;16.87;48.38;100488.09;5049687;28;20045;-80
2022/06/15 00:44:21;;;;;;;2.90;1.52;;;;;;;17.01;49.05;100519.19;5043130;28;20122;-77
2022/06/15 00:46:51;;;;;;;3.97;1.63;;;;;;;16.95;48.79;100512.47;5058751;28;20278;-78
2022/06/15 00:49:28;;;;;;;2.53;1.60;;;;;;;16.97;49.13;100513.22;5055797;28;20338;-79
2022/06/15 00:52:07;;;;;;;3.17;1.65;;;;;;;16.90;49.36;100508.41;5058011;28;20440;-78
2022/06/15 00:54:34;;;;;;;5.38;1.80;;;;;;;16.84;49.61;100502.53;5044071;28;20078;-78
2022/06/15 00:57:02;;;;;;;4.55;1.67;;;;;;;16.85;49.66;100514.06;5045005;28;20037;-78
2022/06/15 00:59:34;;;;;;;1.55;1.30;;;;;;;16.71;49.91;100487.47;5055007;28;20091;-79
2022/06/15 01:02:01;;;;;;;4.88;1.80;;;;;;;16.77;49.96;100503.94;5048439;28;20099;-77
2022/06/15 01:04:40;;;;;;;2.45;1.40;;;;;;;16.81;49.70;100499.25;5062810;28;20064;-77
2022/06/15 01:07:16;;;;;;;2.47;1.40;;;;;;;16.69;50.03;100478.69;5049130;28;20052;-77
2022/06/15 01:09:54;;;;;;;1.73;1.45;;;;;;;16.75;50.41;100491.63;5049355;28;20385;-78
2022/06/15 01:13:02;;;;;;;3.08;1.70;;;;;;;16.71;50.60;100487.47;5045306;28;20080;-77
2022/06/15 01:15:38;;;;;;;3.72;1.55;;;;;;;16.66;50.65;100494.97;5046904;28;20064;-77
2022/06/15 01:18:23;;;;;;;4.28;1.60;;;;;;;16.47;51.05;100474.84;5046087;28;20145;-78
2022/06/15 01:21:17;;;;;;;4.10;1.60;;;;;;;16.57;51.10;100496.44;5051786;28;20053;-78
2022/06/15 01:23:55;;;;;;;2.55;1.70;;;;;;;16.49;51.22;100486.28;5042465;28;20040;-79
2022/06/15 01:26:42;;;;;;;3.45;1.60;;;;;;;16.44;51.24;100480.41;5047394;28;20044;-78
2022/06/15 01:29:31;;;;;;;5.57;1.88;;;;;;;16.46;51.80;100493.66;5046857;28;20095;-78
2022/06/15 01:32:09;;;;;;;3.53;1.60;;;;;;;16.40;52.07;100488.72;5045950;28;20053;-77
2022/06/15 01:34:51;;;;;;;3.50;1.73;;;;;;;16.33;52.42;100474.09;5046700;28;20148;-78
2022/06/15 01:37:59;;;;;;;3.45;1.70;;;;;;;16.40;52.29;100499.41;5051064;28;20041;-78
2022/06/15 01:40:41;;;;;;;4.38;2.03;;;;;;;16.35;52.59;100501.56;5021301;28;20079;-78
2022/06/15 01:43:15;;;;;;;4.55;1.83;;;;;;;16.27;52.83;100493.22;5046520;28;20114;-80
2022/06/15 01:45:44;;;;;;;2.95;1.52;;;;;;;16.24;53.17;100498.75;5044007;28;20052;-77
2022/06/15 01:48:12;;;;;;;2.15;1.58;;;;;;;16.21;53.37;100505.19;5048259;28;20045;-78
2022/06/15 01:50:45;;;;;;;4.53;1.98;;;;;;;16.16;53.85;100501.13;5051661;28;20178;-78
2022/06/15 01:53:14;;;;;;;3.75;1.88;;;;;;;16.13;53.73;100504.84;5049775;28;20048;-78
2022/06/15 01:55:55;;;;;;;3.88;1.88;;;;;;;16.09;54.07;100508.69;5044071;28;20052;-79
2022/06/15 01:58:26;;;;;;;4.20;1.75;;;;;;;16.05;54.10;100489.38;5048971;28;20060;-78
2022/06/15 02:01:17;;;;;;;3.80;1.98;;;;;;;15.84;54.63;100474.78;5052696;28;20401;-79
2022/06/15 02:04:05;;;;;;;4.45;1.77;;;;;;;15.92;55.03;100503.63;5053833;28;20399;-76
2022/06/15 02:06:50;;;;;;;2.33;1.70;;;;;;;15.79;55.17;100477.75;5047899;28;20084;-78
2022/06/15 02:09:42;;;;;;;4.45;2.17;;;;;;;15.92;55.15;100506.28;5050971;28;20056;-76
2022/06/15 02:12:11;;;;;;;3.70;1.60;;;;;;;15.79;55.13;100476.91;5046031;28;20180;-78
2022/06/15 02:14:46;;;;;;;3.50;1.92;;;;;;;15.89;55.43;100498.50;5045981;28;20820;-78
2022/06/15 02:17:33;;;;;;;1.83;1.60;;;;;;;15.87;55.70;100493.28;5053089;28;20060;-77
2022/06/15 02:20:06;;;;;;;6.97;1.75;;;;;;;15.86;55.68;100498.72;5042323;28;20057;-77
2022/06/15 02:22:35;;;;;;;3.65;2.03;;;;;;;15.85;55.82;100497.84;5048736;28;20053;-75
2022/06/15 02:25:08;;;;;;;3.88;1.92;;;;;;;15.82;55.91;100495.38;5051230;28;20107;-77
2022/06/15 02:27:36;;;;;;;4.75;1.80;;;;;;;15.68;55.83;100461.59;5053242;28;20151;-77
2022/06/15 02:30:08;;;;;;;6.82;2.30;;;;;;;15.85;55.79;100492.53;5049089;28;20140;-77
2022/06/15 02:32:40;;;;;;;5.18;1.95;;;;;;;15.83;55.88;100493.56;5048599;28;20053;-75
2022/06/15 02:35:07;;;;;;;3.72;1.90;;;;;;;15.79;55.94;100488.44;5050544;28;20068;-79
2022/06/15 02:37:34;;;;;;;4.75;2.05;;;;;;;15.70;56.11;100480.19;5050597;28;20045;-78
2022/06/15 02:40:01;;;;;;;2.42;1.95;;;;;;;15.73;56.34;100488.00;5047170;28;20045;-76
2022/06/15 02:42:37;;;;;;;4.38;2.20;;;;;;;15.74;56.40;100495.88;5043930;28;20509;-78
2022/06/15 02:45:09;;;;;;;3.85;1.95;;;;;;;15.70;56.57;100490.88;5046236;28;20077;-77
2022/06/15 02:47:41;;;;;;;4.40;1.90;;;;;;;15.70;56.82;100485.53;5048011;28;20055;-77
2022/06/15 02:50:13;;;;;;;6.28;1.83;;;;;;;15.55;57.05;100474.06;5049993;28;20118;-76
2022/06/15 02:52:54;;;;;;;3.30;2.00;;;;;;;15.70;57.07;100489.06;5047909;28;20128;-77
2022/06/15 02:55:24;;;;;;;2.45;1.60;;;;;;;15.68;57.24;100492.78;5041565;28;20076;-76
2022/06/15 02:58:00;;;;;;;3.42;2.00;;;;;;;15.45;57.41;100467.56;5042180;28;20530;-76
2022/06/15 03:00:27;;;;;;;2.85;1.70;;;;;;;15.60;57.55;100503.97;5050897;28;20048;-77
2022/06/15 03:02:53;;;;;;;3.72;2.05;;;;;;;15.59;57.82;100491.56;5044438;28;20560;-77
2022/06/15 03:05:20;;;;;;;3.78;2.00;;;;;;;15.55;57.87;100495.41;5044617;28;20060;-76
2022/06/15 03:07:47;;;;;;;4.35;2.30;;;;;;;15.53;57.84;100497.28;5047955;28;20111;-78
2022/06/15 03:10:14;;;;;;;5.70;2.20;;;;;;;15.50;57.74;100502.81;5047249;28;20056;-79
2022/06/15 03:12:40;;;;;;;3.50;1.85;;;;;;;15.44;57.85;100493.41;5047414;28;20057;-77
2022/06/15 03:15:07;;;;;;;2.40;1.77;;;;;;;15.27;58.23;100468.78;5046050;28;20049;-78
2022/06/15 03:17:34;;;;;;;2.53;1.90;;;;;;;15.40;58.56;100491.06;5048294;28;20064;-77
2022/06/15 03:20:01;;;;;;;5.85;2.58;;;;;;;15.40;58.37;100483.91;5046439;28;20509;-78
2022/06/15 03:22:28;;;;;;;4.05;1.88;;;;;;;15.41;58.24;100485.63;5046941;28;20069;-79
2022/06/15 03:24:55;;;;;;;4.45;2.30;;;;;;;15.39;58.31;100490.19;5031948;28;20094;-77
2022/06/15 03:27:21;;;;;;;5.82;2.13;;;;;;;15.37;58.47;100481.44;5069789;28;20091;-78
2022/06/15 03:29:50;;;;;;;2.90;1.90;;;;;;;15.40;58.56;100494.59;5053870;28;20079;-79
2022/06/15 03:32:17;;;;;;;5.60;1.77;;;;;;;15.33;58.75;100477.25;5046144;28;20118;-77
2022/06/15 03:34:44;;;;;;;6.53;2.00;;;;;;;15.22;59.03;100465.56;5045763;28;20052;-78
2022/06/15 03:37:11;;;;;;;4.03;2.03;;;;;;;15.27;59.02;100463.44;5052557;28;20147;-79
2022/06/15 03:39:40;;;;;;;6.10;2.17;;;;;;;15.27;59.48;100480.31;5050373;28;20047;-79
2022/06/15 03:42:08;;;;;;;3.80;2.05;;;;;;;15.33;59.35;100489.72;5045940;28;20045;-79
2022/06/15 03:44:35;;;;;;;5.13;2.10;;;;;;;15.28;59.31;100486.50;5043460;28;20053;-76
2022/06/15 03:47:02;;;;;;;5.55;1.90;;;;;;;15.33;59.46;100495.06;5048257;28;20057;-78
2022/06/15 03:49:29;;;;;;;4.03;2.10;;;;;;;15.34;59.42;100496.78;5046212;28;20103;-78
2022/06/15 03:51:56;;;;;;;3.13;2.17;;;;;;;15.29;59.62;100488.22;5049761;28;20755;-79
2022/06/15 03:54:22;;;;;;;10.00;6.88;;;;;;;15.15;59.91;100469.56;5049492;28;20052;-79
2022/06/15 03:56:49;;;;;;;3.70;2.13;;;;;;;15.18;60.56;100474.72;5052580;28;20111;-78
2022/06/15 03:59:16;;;;;;;4.43;2.00;;;;;;;15.16;60.49;100473.97;5055060;28;20056;-78
2022/06/15 04:01:43;;;;;;;3.58;2.00;;;;;;;15.26;60.46;100489.28;5051458;28;20098;-79
2022/06/15 04:04:09;;;;;;;5.65;2.28;;;;;;;15.33;60.34;100487.06;5048626;28;20045;-78
2022/06/15 04:06:36;;;;;;;4.72;2.50;;;;;;;15.26;60.75;100472.44;5045458;28;20048;-79
2022/06/15 04:09:03;;;;;;;11.63;2.50;;;;;;;15.31;60.51;100488.97;5048562;28;20049;-79
2022/06/15 04:14:16;;;;;;;6.10;2.53;;;;;;;15.25;60.82;100484.06;5046666;28;20045;-78
2022/06/15 04:16:43;;;;;;;5.43;2.28;;;;;;;15.25;61.05;100486.72;5051319;28;20072;-78
2022/06/15 04:19:11;;;;;;;4.80;2.47;;;;;;;15.30;61.06;100487.25;5049354;28;20404;-77
2022/06/15 04:21:42;;;;;;;4.68;2.35;;;;;;;15.31;61.08;100494.31;5049741;28;20586;-78
2022/06/15 04:24:11;;;;;;;5.38;2.40;;;;;;;15.21;61.04;100466.53;5048759;28;20048;-75
2022/06/15 04:26:39;;;;;;;4.25;2.00;;;;;;;15.25;60.90;100471.56;5052814;28;20055;-78
2022/06/15 04:29:06;;;;;;;4.22;2.22;;;;;;;15.28;60.91;100474.00;5056842;28;20413;-78
2022/06/15 04:31:32;;;;;;;4.50;1.85;;;;;;;15.44;60.99;100487.22;5049130;28;20052;-80
2022/06/15 04:33:59;;;;;;;3.13;2.08;;;;;;;15.45;60.88;100489.78;5051365;28;20369;-75
2022/06/15 04:36:28;;;;;;;6.07;2.25;;;;;;;15.43;60.83;100475.66;5047820;28;20049;-78
2022/06/15 04:38:56;;;;;;;6.05;1.90;;;;;;;15.57;60.75;100489.97;5051966;28;20477;-80
2022/06/15 04:41:24;;;;;;;4.85;2.17;;;;;;;15.48;60.91;100469.19;5053666;28;20083;-76
2022/06/15 04:43:50;;;;;;;3.42;2.05;;;;;;;15.54;60.67;100484.81;5053900;28;20473;-78
2022/06/15 04:46:18;;;;;;;3.58;2.03;;;;;;;15.49;61.04;100470.91;5047621;28;20037;-77
2022/06/15 04:48:44;;;;;;;5.15;2.03;;;;;;;15.67;60.44;100491.06;5046036;28;20801;-80
2022/06/15 04:51:21;;;;;;;5.28;2.17;;;;;;;15.60;60.19;100468.41;5047328;28;20052;-78
2022/06/15 04:53:50;;;;;;;2.78;2.10;;;;;;;15.73;59.95;100483.53;5037908;28;20067;-78
2022/06/15 04:56:21;;;;;;;5.15;2.30;;;;;;;15.87;59.90;100487.06;5040414;28;20040;-77
2022/06/15 04:58:48;;;;;;;4.93;2.38;;;;;;;15.94;59.99;100499.03;5045212;28;20049;-78
2022/06/15 05:01:15;;;;;;;5.78;2.58;;;;;;;15.94;60.41;100501.72;5044364;28;20052;-76
2022/06/15 05:03:43;;;;;;;7.70;2.35;;;;;;;16.01;60.08;100503.03;5040472;28;20053;-77
2022/06/15 05:06:28;;;;;;;5.95;2.20;;;;;;;16.08;59.52;100497.16;5040266;28;20045;-78
2022/06/15 05:08:55;;;;;;;4.50;2.22;;;;;;;16.29;58.65;100496.63;5042416;28;20049;-78
2022/06/15 05:11:22;;;;;;;5.47;2.38;;;;;;;16.30;58.13;100498.34;5044821;28;20135;-78
2022/06/15 05:13:48;;;;;;;3.33;2.08;;;;;;;16.24;57.61;100482.72;5026588;28;20069;-78
2022/06/15 05:16:15;;;;;;;6.75;2.17;;;;;;;16.35;57.94;100486.41;5046850;28;20164;-77
2022/06/15 05:18:42;;;;;;;3.25;1.65;;;;;;;16.51;58.47;100483.50;5042384;28;20797;-78
2022/06/15 05:21:08;;;;;;;4.22;1.90;;;;;;;16.74;57.00;100497.94;5049933;28;20072;-78
2022/06/15 05:23:35;;;;;;;6.10;1.90;;;;;;;16.90;56.79;100503.91;5038151;28;20135;-80
2022/06/15 05:26:02;;;;;;;3.58;1.90;;;;;;;16.90;55.81;100497.72;5054363;28;20465;-75
2022/06/15 05:28:29;;;;;;;4.63;2.30;;;;;;;16.88;55.94;100483.59;5043016;28;20546;-78
2022/06/15 05:31:08;;;;;;;4.50;2.30;;;;;;;16.92;55.05;100472.56;5041540;28;20057;-78
2022/06/15 05:33:36;;;;;;;8.18;2.45;;;;;;;17.04;55.09;100490.41;5040579;28;20065;-76
2022/06/15 05:36:07;;;;;;;3.75;2.28;;;;;;;17.11;54.69;100497.03;5047689;28;20464;-77
2022/06/15 05:38:35;;;;;;;7.30;2.30;;;;;;;17.08;54.45;100497.25;5041534;28;20049;-76
2022/06/15 05:41:04;;;;;;;9.85;2.33;;;;;;;16.94;54.52;100478.66;5045858;28;20041;-78
2022/06/15 05:43:33;;;;;;;3.90;2.00;;;;;;;17.10;54.59;100503.34;5047200;28;20411;-77
2022/06/15 05:46:23;;;;;;;2.70;1.80;;;;;;;17.25;54.23;100498.69;5043370;28;20103;-76
2022/06/15 05:48:49;;;;;;;2.92;1.90;;;;;;;17.37;53.85;100499.63;5035093;28;20041;-75
2022/06/15 05:51:16;;;;;;;5.28;2.05;;;;;;;17.50;54.01;100495.06;5046264;28;20133;-75
2022/06/15 05:53:43;;;;;;;4.55;2.00;;;;;;;17.68;53.38;100490.19;5036623;28;20398;-76
2022/06/15 05:56:10;;;;;;;5.28;1.83;;;;;;;17.81;53.44;100493.66;5038370;28;20098;-75
2022/06/15 05:58:37;;;;;;;6.05;1.98;;;;;;;17.87;52.99;100494.06;5042742;28;20037;-72
2022/06/15 06:01:25;;;;;;;3.40;2.28;;;;;;;18.00;52.43;100496.66;5041651;28;20475;-73
2022/06/15 06:03:53;;;;;;;4.32;2.05;;;;;;;18.15;52.76;100502.66;5041647;28;20049;-74
2022/06/15 06:06:20;;;;;;;4.22;1.90;;;;;;;18.26;51.73;100486.59;5041994;28;25581;-76
2022/06/15 06:08:47;;;;;;;6.20;2.40;;;;;;;18.38;51.22;100476.78;5037268;28;20122;-73
2022/06/15 06:11:14;;;;;;;7.90;2.33;;;;;;;18.65;50.16;100500.59;5036855;28;20283;-75
2022/06/15 06:13:41;;;;;;;7.63;1.95;;;;;;;18.77;49.84;100488.91;5036265;28;20056;-75
2022/06/15 06:16:08;;;;;;;3.92;1.90;;;;;;;19.00;49.90;100495.97;5039838;28;20041;-74
2022/06/15 06:18:35;;;;;;;4.07;2.00;;;;;;;19.32;48.06;100490.69;5036482;28;20132;-76
2022/06/15 06:21:03;;;;;;;3.35;1.92;;;;;;;19.61;47.05;100482.94;5037523;28;20095;-77
2022/06/15 06:23:30;;;;;;;6.20;1.90;;;;;;;19.95;46.58;100487.19;5036928;28;20037;-76
2022/06/15 06:25:56;;;;;;;4.15;1.83;;;;;;;20.28;45.28;100482.63;5043292;28;20140;-74
2022/06/15 06:28:26;;;;;;;8.32;1.85;;;;;;;20.58;45.24;100485.38;5026396;28;20135;-74
2022/06/15 06:30:54;;;;;;;7.68;2.08;;;;;;;20.69;44.22;100453.97;5042794;28;20080;-74
2022/06/15 06:33:21;;;;;;;4.57;2.22;;;;;;;20.91;43.70;100448.41;5042902;28;20045;-75
2022/06/15 06:35:48;;;;;;;3.50;2.10;;;;;;;21.44;42.74;100483.13;5027315;28;20049;-77
2022/06/15 06:38:16;;;;;;;6.60;1.90;;;;;;;21.91;41.81;100482.31;5057699;28;20071;-75
2022/06/15 06:40:43;;;;;;;3.55;2.00;;;;;;;22.14;41.74;100485.59;5042367;28;20459;-75
2022/06/15 06:43:10;;;;;;;2.90;2.00;;;;;;;22.13;41.54;100488.44;5040845;28;21059;-73
2022/06/15 06:45:37;;;;;;;5.50;2.00;;;;;;;22.24;41.62;100483.72;5037062;28;20123;-79
2022/06/15 06:48:04;;;;;;;3.75;1.88;;;;;;;22.58;41.80;100494.00;5038694;28;20528;-74
2022/06/15 06:50:31;;;;;;;4.55;1.90;;;;;;;22.72;40.08;100493.53;5042278;28;20053;-75
2022/06/15 06:52:58;;;;;;;3.28;1.70;;;;;;;23.02;39.30;100495.16;5024418;28;20068;-75
2022/06/15 06:55:28;;;;;;;4.40;1.83;;;;;;;23.15;39.87;100508.31;5040710;28;20661;-75
2022/06/15 06:57:56;;;;;;;2.83;1.70;;;;;;;23.18;39.19;100500.75;5045505;28;20103;-73
2022/06/15 07:00:23;;;;;;;4.75;1.85;;;;;;;23.35;39.93;100496.41;5040194;28;21018;-75
2022/06/15 07:02:51;;;;;;;9.43;2.17;;;;;;;23.41;40.22;100501.22;5038121;28;20079;-75
2022/06/15 07:05:23;;;;;;;6.28;1.70;;;;;;;23.65;39.38;100504.19;5040656;28;20047;-79
2022/06/15 07:07:50;;;;;;;6.55;1.88;;;;;;;23.76;38.52;100506.69;5043914;28;20569;-73
2022/06/15 07:10:17;;;;;;;3.95;2.13;;;;;;;23.90;38.30;100502.59;5045032;28;20474;-72
2022/06/15 07:12:43;;;;;;;5.00;1.70;;;;;;;24.00;38.01;100513.31;5034869;28;20090;-76
2022/06/15 07:15:12;;;;;;;3.72;1.67;;;;;;;24.12;37.43;100504.78;5041562;28;20087;-75
2022/06/15 07:17:40;;;;;;;5.57;2.03;;;;;;;23.98;37.48;100508.06;5046677;28;20045;-73
2022/06/15 07:20:11;;;;;;;5.88;2.10;;;;;;;24.06;38.15;100502.72;5046954;28;20057;-75
2022/06/15 07:22:39;;;;;;;3.63;1.95;;;;;;;24.13;38.77;100509.19;5050792;28;20101;-74
2022/06/15 07:25:08;;;;;;;2.08;1.65;;;;;;;24.06;38.78;100513.56;5028275;28;20063;-74
2022/06/15 07:27:37;;;;;;;4.40;2.67;;;;;;;24.06;39.01;100502.72;5046410;28;20479;-76
2022/06/15 07:30:07;;;;;;;4.40;1.73;;;;;;;24.29;38.72;100507.66;5046767;28;20049;-75
2022/06/15 07:32:33;;;;;;;3.22;1.55;;;;;;;24.40;37.35;100493.88;5043560;28;20041;-74
2022/06/15 07:35:00;;;;;;;2.80;1.95;;;;;;;24.74;37.38;100492.06;5042941;28;20061;-78
2022/06/15 07:37:27;;;;;;;4.07;2.15;;;;;;;25.00;37.81;100492.06;5041361;28;20099;-77
2022/06/15 07:40:15;;;;;;;4.90;2.00;;;;;;;24.56;38.31;100488.56;5046484;28;20073;-78
2022/06/15 07:42:42;;;;;;;11.23;1.92;;;;;;;24.74;37.93;100507.47;5048555;28;20170;-78
2022/06/15 07:45:10;;;;;;;4.18;1.90;;;;;;;24.60;38.07;100492.66;5041728;28;20044;-77
2022/06/15 07:50:23;;;;;;;6.03;2.33;;;;;;;25.24;36.85;100498.59;5046638;28;20052;-79
2022/06/15 07:53:02;;;;;;;5.28;2.17;;;;;;;25.18;36.30;100498.22;5051139;28;20906;-78
2022/06/15 07:55:33;;;;;;;;;;;;;;;25.02;36.61;100497.34;5049494;28;20053;-77
2022/06/15 07:58:01;;;;;;;3.38;1.83;;;;;;;25.04;37.56;100488.00;5047493;28;19921;-77
2022/06/15 08:00:29;;;;;;;4.72;1.92;;;;;;;25.20;37.53;100475.53;5049072;28;20045;-77
2022/06/15 08:02:58;;;;;;;3.47;1.85;;;;;;;25.59;36.19;100492.94;5047705;28;20049;-77
2022/06/15 08:05:26;;;;;;;2.88;1.73;;;;;;;25.93;35.83;100486.56;5029578;28;20053;-77
2022/06/15 08:07:54;;;;;;;4.47;2.00;;;;;;;26.13;35.87;100491.47;5044363;28;20080;-78
2022/06/15 08:10:26;;;;;;;2.20;2.00;;;;;;;26.12;36.00;100483.53;5046322;28;20523;-77
2022/06/15 08:12:53;;;;;;;4.38;2.00;;;;;;;26.13;35.45;100479.81;5040236;28;20847;-79
2022/06/15 08:15:21;;;;;;;4.97;2.20;;;;;;;26.16;34.74;100458.56;5024554;28;20477;-78
2022/06/15 08:17:54;;;;;;;3.08;2.13;;;;;;;26.38;35.08;100480.66;5052687;28;20052;-78
2022/06/15 08:20:33;;;;;;;2.67;1.92;;;;;;;26.55;34.23;100480.44;5044316;28;20476;-76
2022/06/15 08:23:07;;;;;;;3.72;2.00;;;;;;;26.65;34.02;100480.25;5045452;28;20048;-78
2022/06/15 08:25:39;;;;;;;2.50;1.67;;;;;;;26.65;34.25;100474.81;5047514;28;20052;-78
2022/06/15 08:28:08;;;;;;;4.97;1.90;;;;;;;26.55;34.94;100457.88;5059176;28;21059;-78
2022/06/15 08:30:36;;;;;;;4.93;2.00;;;;;;;26.72;34.25;100478.53;5044274;28;20056;-77
2022/06/15 08:33:04;;;;;;;3.38;1.98;;;;;;;26.82;33.27;100464.75;5045624;28;20045;-80
2022/06/15 08:35:32;;;;;;;4.68;1.92;;;;;;;26.69;34.52;100467.16;5047920;28;20111;-78
2022/06/15 08:37:58;;;;;;;6.72;2.20;;;;;;;26.87;34.27;100473.22;5047938;28;20044;-77
2022/06/15 08:40:30;;;;;;;3.03;1.92;;;;;;;27.16;34.24;100483.50;5058825;28;20076;-79
2022/06/15 08:43:12;;;;;;;2.95;2.25;;;;;;;27.18;34.04;100481.44;5051163;28;20075;-78
2022/06/15 08:45:45;;;;;;;4.20;2.35;;;;;;;26.98;34.02;100458.44;5042746;28;20482;-82
2022/06/15 08:48:27;;;;;;;5.97;2.22;;;;;;;26.65;37.46;100452.22;5032947;28;20091;-79
2022/06/15 08:50:59;;;;;;;5.50;2.25;;;;;;;26.20;37.15;100459.09;5064434;28;20370;-85
2022/06/15 08:53:40;;;;;;;5.70;2.35;;;;;;;25.59;37.71;100454.13;5047358;28;20087;-84
2022/06/15 08:56:14;;;;;;;4.45;2.05;;;;;;;25.62;36.82;100464.69;5060992;28;20431;-83
2022/06/15 08:58:50;;;;;;;5.32;2.25;;;;;;;25.79;36.22;100469.94;5047029;28;20045;-84
2022/06/15 09:01:36;;;;;;;7.57;2.20;;;;;;;26.19;34.90;100474.53;5038560;28;20076;-78
2022/06/15 09:04:27;;;;;;;5.53;2.38;;;;;;;26.40;34.38;100470.47;5051325;28;20041;-81
2022/06/15 09:07:39;;;;;;;8.43;2.35;;;;;;;26.15;35.22;100467.72;5046782;28;20086;-82
2022/06/15 09:10:35;;;;;;;2.55;2.10;;;;;;;26.02;35.78;100470.13;5051103;28;20052;-82
2022/06/15 09:13:11;;;;;;;3.80;2.30;;;;;;;26.39;34.81;100461.47;5043372;28;20056;-83
2022/06/15 09:16:08;;;;;;;6.57;2.60;;;;;;;26.59;34.98;100472.81;5046264;28;20041;-80
2022/06/15 09:18:41;;;;;;;4.22;2.17;;;;;;;27.03;34.19;100461.47;5046807;28;20063;-82
2022/06/15 09:21:44;;;;;;;5.93;2.58;;;;;;;27.07;33.40;100462.81;5050734;28;20053;-79
2022/06/15 09:24:47;;;;;;;4.05;2.53;;;;;;;26.97;33.07;100464.88;5043719;28;20049;-81
2022/06/15 09:27:21;;;;;;;4.78;2.30;;;;;;;26.88;33.66;100464.91;5045987;28;20045;-77
2022/06/15 09:29:58;;;;;;;8.13;2.50;;;;;;;26.91;32.87;100461.00;5056617;28;20049;-82
2022/06/15 09:32:32;;;;;;;6.18;2.42;;;;;;;26.63;33.84;100460.56;5056517;28;20041;-78
2022/06/15 09:35:03;;;;;;;6.57;2.60;;;;;;;26.40;34.69;100457.75;5056919;28;20103;-77
2022/06/15 09:37:33;;;;;;;5.55;2.10;;;;;;;26.32;34.18;100456.88;5050360;28;20108;-79
2022/06/15 09:40:01;;;;;;;3.72;2.10;;;;;;;26.19;33.90;100460.94;5049445;28;20045;-77
2022/06/15 09:42:55;;;;;;;6.18;2.50;;;;;;;26.07;34.21;100448.75;5051294;28;20104;-78
2022/06/15 09:45:28;;;;;;;6.07;2.78;;;;;;;26.17;34.42;100457.56;5053425;28;20080;-78
2022/06/15 09:48:06;;;;;;;5.55;2.72;;;;;;;26.20;34.59;100453.66;5060752;28;20103;-77
2022/06/15 09:50:52;;;;;;;4.85;2.50;;;;;;;26.15;34.59;100446.00;5055677;28;20049;-77
2022/06/15 09:53:34;;;;;;;3.78;2.22;;;;;;;26.18;34.10;100445.69;5049858;28;20408;-78
2022/06/15 09:56:09;;;;;;;4.57;2.20;;;;;;;26.32;33.97;100444.16;5049177;28;20045;-79
2022/06/15 09:58:58;;;;;;;4.65;2.47;;;;;;;26.48;33.91;100441.41;5042771;28;20136;-77
2022/06/15 10:01:30;;;;;;;6.30;2.45;;;;;;;26.63;33.72;100444.25;5049896;28;20594;-79
2022/06/15 10:04:00;;;;;;;5.75;2.60;;;;;;;26.66;32.84;100437.63;5031632;28;20119;-78
2022/06/15 10:06:29;;;;;;;2.92;2.10;;;;;;;26.60;33.34;100425.63;5051570;28;20122;-80
2022/06/15 10:09:00;;;;;;;6.55;2.97;;;;;;;26.90;32.66;100453.88;5050313;28;20060;-79
2022/06/15 10:11:35;;;;;;;4.50;2.53;;;;;;;27.05;32.50;100449.41;5046138;28;20080;-75
2022/06/15 10:14:27;;;;;;;2.58;2.03;;;;;;;27.15;32.14;100441.88;5044392;28;20063;-77
2022/06/15 10:17:24;;;;;;;3.85;2.30;;;;;;;27.16;31.76;100423.69;5049571;28;20057;-77
2022/06/15 10:19:53;;;;;;;3.88;2.53;;;;;;;27.36;31.18;100440.41;5037083;28;20053;-81
2022/06/15 10:22:28;;;;;;;4.57;3.22;;;;;;;27.42;31.59;100434.22;5055373;28;20056;-78
2022/06/15 10:25:01;;;;;;;9.00;2.80;;;;;;;27.49;31.23;100433.34;5053149;28;20045;-79
2022/06/15 10:27:35;;;;;;;6.45;2.42;;;;;;;27.28;31.28;100395.06;5049545;28;20061;-79
2022/06/15 10:30:08;;;;;;;4.22;2.40;;;;;;;27.66;31.40;100436.00;5049206;28;20279;-78
2022/06/15 10:32:38;;;;;;;5.70;2.70;;;;;;;27.72;30.48;100424.34;5048601;28;20103;-77
2022/06/15 10:35:15;;;;;;;5.57;2.53;;;;;;;27.71;30.64;100436.25;5051585;28;20041;-73
2022/06/15 10:37:48;;;;;;;9.85;3.25;;;;;;;27.62;30.92;100430.06;5053188;28;20131;-74
2022/06/15 10:40:31;;;;;;;3.72;2.58;;;;;;;27.64;30.19;100427.16;5043075;28;20071;-76
2022/06/15 10:43:12;;;;;;;5.60;2.60;;;;;;;27.56;30.61;100420.72;5038452;28;20049;-75
2022/06/15 10:46:04;;;;;;;3.63;2.40;;;;;;;27.43;30.47;100406.00;5040632;28;20489;-77
2022/06/15 10:48:46;;;;;;;4.30;3.00;;;;;;;27.62;30.94;100418.31;5039402;28;20060;-78
2022/06/15 10:51:18;;;;;;;4.25;2.47;;;;;;;27.77;31.15;100411.91;5049653;28;20076;-77
2022/06/15 10:54:18;;;;;;;4.38;2.80;;;;;;;27.86;30.28;100418.16;5043980;28;20485;-76
2022/06/15 11:02:39;;;;;;;4.80;2.70;;;;;;;27.93;30.21;100405.47;5042420;28;20061;-75
2022/06/15 11:05:09;;;;;;;4.25;2.67;;;;;;;27.75;30.29;100397.63;5044508;28;20047;-76
2022/06/15 11:07:58;;;;;;;3.90;2.47;;;;;;;27.85;29.88;100413.72;5049499;28;20160;-76
2022/06/15 11:10:35;;;;;;;3.45;2.50;;;;;;;27.98;29.71;100405.78;5046452;28;20060;-74
2022/06/15 11:13:25;;;;;;;4.88;2.70;;;;;;;28.07;28.70;100388.31;5046795;28;20128;-75
2022/06/15 11:18:42;;;;;;;6.10;2.70;;;;;;;28.38;28.93;100399.09;5053656;28;20071;-76
2022/06/15 11:21:23;;;;;;;5.93;2.85;;;;;;;28.48;28.80;100387.94;5048753;28;20632;-75
2022/06/15 11:24:02;;;;;;;4.75;2.72;;;;;;;28.63;28.58;100395.06;5041300;28;20083;-75
2022/06/15 11:26:52;;;;;;;4.30;2.90;;;;;;;28.82;28.46;100390.06;5043894;28;20490;-75
2022/06/15 11:29:58;;;;;;;8.05;2.70;;;;;;;28.89;28.31;100391.03;5045045;28;20060;-76
2022/06/15 11:32:44;;;;;;;8.85;2.70;;;;;;;28.91;28.44;100387.06;5039300;28;20328;-75
2022/06/15 11:35:13;;;;;;;3.92;2.78;;;;;;;28.83;28.93;100383.59;5044831;28;20103;-75
2022/06/15 11:37:46;;;;;;;4.70;2.63;;;;;;;28.75;28.99;100365.47;5047887;28;20566;-75
2022/06/15 11:40:26;;;;;;;3.95;2.60;;;;;;;28.73;28.68;100351.16;5042779;28;20053;-75
2022/06/15 11:42:53;;;;;;;4.68;2.95;;;;;;;28.59;28.94;100355.59;5046338;28;20053;-75
2022/06/15 11:45:32;;;;;;;3.97;2.65;;;;;;;28.35;29.34;100363.22;5041412;28;20041;-75
2022/06/15 11:48:10;;;;;;;3.47;2.70;;;;;;;28.51;29.37;100382.09;5041585;28;20047;-77
2022/06/15 11:50:49;;;;;;;5.97;2.83;;;;;;;28.75;28.37;100373.63;5046617;28;20092;-77
2022/06/15 11:53:29;;;;;;;4.32;2.78;;;;;;;29.00;27.42;100376.88;5041054;28;20787;-76
2022/06/15 11:56:16;;;;;;;5.68;2.72;;;;;;;29.15;27.32;100366.78;5046221;28;20049;-75
2022/06/15 11:59:03;;;;;;;4.70;2.90;;;;;;;29.34;26.84;100376.22;5044577;28;20083;-75
2022/06/15 12:02:06;;;;;;;5.82;2.65;;;;;;;29.55;26.48;100373.53;5042182;28;20045;-76
2022/06/15 12:04:55;;;;;;;8.85;2.70;;;;;;;29.61;26.32;100377.34;5044197;28;20053;-76
2022/06/15 12:07:49;;;;;;;8.18;2.47;;;;;;;29.69;26.34;100373.66;5038507;28;20060;-76